Time;durP1;ratioP1;P1;durP2;ratioP2;P2;SDS_P1;SDS_P2;PMS_P1;PMS_P2;Temp;Humidity;BMP_temperature;BMP_pressure;BME280_temperature;BME280_humidity;BME280_pressure;Samples;Min_cycle;Max_cycle;Signal;HPM_P1;HPM_P2
2021/12/10 13:53:28;;;;;;;6.07;2.20;;;0.20;1.00;196.50;224877.00;;;;4937586;29;20214;-90
2021/12/10 13:56:06;;;;;;;2.30;1.90;;;0.30;1.00;196.50;224877.00;;;;4915473;29;20230;-90
2021/12/10 13:58:41;;;;;;;3.03;2.30;;;0.30;1.00;196.50;224877.00;;;;4938876;29;20197;-91
2021/12/10 14:01:38;;;;;;;3.07;2.10;;;0.40;1.00;196.50;224877.00;;;;4951055;28;20195;-88
2021/12/10 14:04:18;;;;;;;2.57;1.80;;;0.30;1.00;196.50;224877.00;;;;4934623;29;20187;-88
2021/12/10 14:06:52;;;;;;;4.00;2.23;;;0.20;1.00;196.50;224877.00;;;;4937674;29;20667;-90
2021/12/10 14:09:51;;;;;;;3.10;2.00;;;0.20;1.00;196.50;224877.00;;;;4939477;29;20187;-88
2021/12/10 14:12:41;;;;;;;2.30;1.70;;;0.10;1.00;196.50;224877.00;;;;4922558;29;20219;-91
2021/12/10 14:18:45;;;;;;;2.57;2.00;;;0.00;1.00;196.50;224877.00;;;;4938910;29;20187;-89
2021/12/10 14:21:43;;;;;;;2.43;1.90;;;-0.10;1.00;196.50;224877.00;;;;4956020;29;20561;-90
2021/12/10 14:24:34;;;;;;;3.17;2.03;;;-0.10;1.00;196.50;224877.00;;;;4950787;28;20191;-89
2021/12/10 14:27:27;;;;;;;3.60;2.30;;;-0.10;1.00;196.50;224877.00;;;;4920736;29;20278;-90
2021/12/10 14:30:30;;;;;;;2.90;2.10;;;-0.20;1.00;196.50;224877.00;;;;4923135;29;20222;-90
2021/12/10 14:33:24;;;;;;;2.87;2.07;;;-0.20;12.00;196.50;224877.00;;;;4930255;29;20300;-89
2021/12/10 14:36:07;;;;;;;2.57;2.03;;;-0.20;60.10;196.50;224877.00;;;;4902544;29;20214;-92
2021/12/10 14:39:09;;;;;;;2.23;1.70;;;-0.30;99.90;196.50;224877.00;;;;4905215;29;20660;-90
2021/12/10 14:41:57;;;;;;;2.10;1.47;;;-0.20;99.90;196.50;224877.00;;;;4905766;29;20204;-91
2021/12/10 14:44:40;;;;;;;1.50;0.60;;;-0.20;99.90;196.50;224877.00;;;;4908298;29;20192;-92
2021/12/10 14:47:20;;;;;;;0.40;0.30;;;-0.10;99.90;196.50;224877.00;;;;4904993;29;20295;-92
2021/12/10 14:50:15;;;;;;;0.47;0.47;;;0.10;99.90;196.50;224877.00;;;;4938651;29;20196;-92
2021/12/10 14:53:32;;;;;;;1.13;0.40;;;0.20;99.90;196.50;224877.00;;;;4923243;29;20667;-92
2021/12/10 14:56:38;;;;;;;0.30;0.30;;;0.30;99.90;196.50;224877.00;;;;4922591;29;20424;-90
2021/12/10 14:59:41;;;;;;;1.20;0.60;;;0.20;1.00;196.50;224877.00;;;;4908377;29;20227;-92
2021/12/10 15:02:32;;;;;;;0.17;0.17;;;0.30;1.00;196.50;224877.00;;;;4924606;29;20188;-91
2021/12/10 15:05:31;;;;;;;0.10;0.10;;;0.30;1.00;196.50;224877.00;;;;4932679;29;20205;-90
2021/12/10 15:08:52;;;;;;;1.23;0.20;;;0.30;1.00;196.50;224877.00;;;;4909707;29;20283;-91
2021/12/10 15:11:58;;;;;;;0.20;0.10;;;0.40;1.00;196.50;224877.00;;;;4925917;29;20233;-92
2021/12/10 15:14:59;;;;;;;0.60;0.50;;;0.40;1.00;196.50;224877.00;;;;4915113;29;20195;-93
2021/12/10 15:17:36;;;;;;;0.10;0.10;;;0.40;1.00;196.50;224877.00;;;;4929570;29;20755;-93
2021/12/10 15:20:29;;;;;;;0.33;0.13;;;0.30;1.00;196.50;224877.00;;;;4923276;29;20196;-92
2021/12/10 15:23:00;;;;;;;0.10;0.10;;;0.30;1.00;196.50;224877.00;;;;4904588;29;20360;-91
2021/12/10 15:25:37;;;;;;;0.30;0.30;;;0.30;1.00;196.50;224877.00;;;;4925509;29;20632;-92
2021/12/10 15:28:05;;;;;;;0.53;0.30;;;0.40;1.00;196.50;224877.00;;;;4923631;29;20200;-93
2021/12/10 19:20:03;;;;;;;3.20;2.30;;;0.40;63.30;196.50;224877.00;;;;5860507;23;20235;-87
2021/12/10 19:30:55;;;;;;;2.13;1.53;;;0.40;60.30;196.50;224877.00;;;;5130846;23;20228;-87
2021/12/10 19:39:17;;;;;;;3.57;2.07;;;0.30;66.30;196.50;224877.00;;;;5456869;23;20302;-83
2021/12/10 19:58:09;;;;;;;2.00;1.70;;;0.20;99.90;196.50;224877.00;;;;5747998;23;20193;-83
2021/12/10 20:31:04;;;;;;;1.47;1.20;;;0.30;99.90;196.50;224877.00;;;;5364483;23;20316;-85
2021/12/10 20:34:33;;;;;;;2.17;1.10;;;0.30;99.90;196.50;224877.00;;;;4967511;28;20187;-86
2021/12/10 20:40:52;;;;;;;1.53;1.27;;;0.30;99.90;196.50;224877.00;;;;5100198;23;20227;-86
2021/12/10 20:46:43;;;;;;;1.33;1.23;;;0.30;99.90;196.50;224877.00;;;;5225188;23;20234;-85
2021/12/10 20:50:44;;;;;;;1.83;0.90;;;0.30;99.90;196.50;224877.00;;;;4959040;29;20200;-86
2021/12/10 20:53:42;;;;;;;0.73;0.60;;;0.30;99.90;196.50;224877.00;;;;4963329;28;20238;-83
2021/12/10 21:00:18;;;;;;;2.27;1.30;;;0.20;99.90;196.50;224877.00;;;;5718369;23;20234;-82
2021/12/10 21:03:39;;;;;;;2.67;1.20;;;0.20;99.90;196.50;224877.00;;;;4941474;29;20264;-83
2021/12/10 22:23:17;;;;;;;3.03;2.47;;;0.20;99.90;196.50;224877.00;;;;5067932;23;20221;-85
2021/12/10 22:26:16;;;;;;;5.60;2.37;;;0.20;99.90;196.50;224877.00;;;;4949653;29;20189;-88
2021/12/10 23:34:49;;;;;;;3.30;2.27;;;0.30;15.60;196.50;224877.00;;;;5598741;23;20242;-87
